Flight Number: EUR3054 Duration: 10:00
Departure: Amsterdam Schiphol (EHAM) at 07:30 Distance: 4322 Nm
Arrival: Salt Lake City Intl Airport (KSLC) at 17:30 Equipment: B747

Weather Information
Amsterdam Airport Schiphol, Netherlands (EHAM) 52-18N 004-46E -2M May 20, 2018 - 09:55 AM EDT / 2018.05.20 1355 UTC
Wind: from the NE (050 degrees) at 9 MPH (8 KT) (direction variable):0
Visibility: greater than 7 mile(s):0 Temperature: 69 F (21 C) Dew Point: 50 F (10 C) Relative Humidity: 49% Pressure (altimeter): 30.15 in. Hg (1021 hPa)
ob: EHAM 201355Z 05008KT 010V150 CAVOK 21/10 Q1021 NOSIG cycle: 14
Sunrise: 03:42 Sunset: 19:32 (UTC)

SALT LAKE CITY INTERNATIONAL AIRPORT , UT, United States (KSLC) 40-47N 111-58W 1286M May 20, 2018 - 09:54 AM EDT / 2018.05.20 1354 UTC
Wind: from the SSE (150 degrees) at 9 MPH (8 KT):0
Visibility: 10 mile(s):0
Sky conditions: mostly clear Temperature: 64.0 F (17.8 C) Dew Point: 43.0 F (6.1 C) Relative Humidity: 46% Pressure (altimeter): 29.96 in. Hg (1014 hPa)
ob: KSLC 201354Z 15008KT 10SM FEW150 FEW250 18/06 A2996 RMK AO2 SLP101 T01780061 cycle: 14
Sunrise: 12:08 Sunset: 02:40 (UTC)

TAF:2018/05/20 12:22 TAF KSLC 201120Z 2012/2118 17007KT P6SM SCT080 SCT150 FM202000 34007KT P6SM VCSH SCT060 BKN120 FM210300 16006KT P6SM SCT080 BKN150

Previous Pireps for this route
Date Aircraft Flight time Fuel used Landing rate On time
2015-01-27B74710.37206753-232Charter
2016-10-22B74710,07198276-194Yes
(pireps marked green are flown by you)

Route map